createdAt,value
2018-10-18T00:02:20.821Z,99.90
2018-10-18T00:04:50.432Z,99.90
2018-10-18T00:07:21.106Z,99.90
2018-10-18T00:09:50.197Z,99.90
2018-10-18T00:12:19.278Z,99.90
2018-10-18T00:14:53.528Z,99.90
2018-10-18T00:17:28.117Z,99.90
2018-10-18T00:19:59.309Z,99.90
2018-10-18T00:22:29.514Z,99.90
2018-10-18T00:24:59.008Z,99.90
2018-10-18T00:27:28.099Z,99.90
2018-10-18T00:29:58.014Z,99.90
2018-10-18T00:32:27.178Z,99.90
2018-10-18T00:34:56.806Z,99.90
2018-10-18T00:37:26.252Z,99.90
2018-10-18T00:39:55.377Z,99.90
2018-10-18T00:42:24.882Z,99.90
2018-10-18T00:44:53.846Z,99.90
2018-10-18T00:47:23.051Z,99.90
2018-10-18T00:49:52.235Z,99.90
2018-10-18T00:52:23.071Z,99.90
2018-10-18T00:54:52.979Z,99.90
2018-10-18T00:57:21.982Z,99.90
2018-10-18T01:00:02.354Z,99.90
2018-10-18T01:02:49.107Z,99.90
2018-10-18T01:05:19.926Z,99.90
2018-10-18T01:07:50.025Z,99.90
2018-10-18T01:10:21.192Z,99.90
2018-10-18T01:12:50.508Z,99.90
2018-10-18T01:15:19.908Z,99.90
2018-10-18T01:17:49.278Z,99.90
2018-10-18T01:20:18.321Z,99.90
2018-10-18T01:22:48.725Z,99.90
2018-10-18T01:25:18.048Z,99.90
2018-10-18T01:27:47.568Z,99.90
2018-10-18T01:30:17.026Z,99.90
2018-10-18T01:32:46.014Z,99.90
2018-10-18T01:35:15.016Z,99.90
2018-10-18T01:38:00.740Z,99.90
2018-10-18T01:40:39.769Z,99.90
2018-10-18T01:43:09.675Z,99.90
2018-10-18T01:45:38.731Z,99.90
2018-10-18T01:48:08.093Z,99.90
2018-10-18T01:50:37.222Z,99.90
2018-10-18T01:53:06.907Z,99.90
2018-10-18T01:55:36.259Z,99.90
2018-10-18T01:58:05.779Z,99.90
2018-10-18T02:00:36.787Z,99.90
2018-10-18T02:03:06.235Z,99.90
2018-10-18T02:05:35.287Z,99.90
2018-10-18T02:08:04.377Z,99.90
2018-10-18T02:10:34.003Z,99.90
2018-10-18T02:13:03.063Z,99.90
2018-10-18T02:15:32.192Z,99.90
2018-10-18T02:18:01.339Z,99.90
2018-10-18T02:20:30.679Z,99.90
2018-10-18T02:22:59.998Z,99.90
2018-10-18T02:25:29.072Z,99.90
2018-10-18T02:27:58.016Z,99.90
2018-10-18T02:30:28.324Z,99.90
2018-10-18T02:32:57.359Z,99.90
2018-10-18T02:35:26.382Z,99.90
2018-10-18T02:37:55.680Z,99.90
2018-10-18T02:40:24.874Z,99.90
2018-10-18T02:42:54.232Z,99.90
2018-10-18T02:45:24.101Z,99.90
2018-10-18T02:47:53.275Z,99.90
2018-10-18T02:50:23.113Z,99.90
2018-10-18T02:52:53.107Z,99.90
2018-10-18T02:55:24.357Z,99.90
2018-10-18T02:57:54.628Z,99.90
2018-10-18T03:00:25.939Z,99.90
2018-10-18T03:02:55.349Z,99.90
2018-10-18T03:05:24.347Z,99.90
2018-10-18T03:07:53.752Z,99.90
2018-10-18T03:10:22.936Z,99.90
2018-10-18T03:12:51.958Z,99.90
2018-10-18T03:15:20.965Z,99.90
2018-10-18T03:17:49.892Z,99.90
2018-10-18T03:20:19.220Z,99.90
2018-10-18T03:22:48.241Z,99.90
2018-10-18T03:25:17.165Z,99.90
2018-10-18T03:27:46.541Z,99.90
2018-10-18T03:30:16.734Z,99.90
2018-10-18T03:32:45.706Z,99.90
2018-10-18T03:35:14.944Z,99.90
2018-10-18T03:37:44.852Z,99.90
2018-10-18T03:40:13.720Z,99.90
2018-10-18T03:42:44.181Z,99.90
2018-10-18T03:45:13.090Z,99.90
2018-10-18T03:47:42.049Z,99.90
2018-10-18T03:50:11.501Z,99.90
2018-10-18T03:52:40.461Z,99.90
2018-10-18T03:55:10.417Z,99.90
2018-10-18T03:57:39.440Z,99.90
2018-10-18T04:00:09.148Z,99.90
2018-10-18T04:02:39.094Z,99.90
2018-10-18T04:05:08.978Z,99.90
2018-10-18T04:07:39.143Z,99.90
2018-10-18T04:10:08.697Z,99.90
2018-10-18T04:12:37.977Z,99.90
2018-10-18T04:15:07.929Z,99.90
2018-10-18T04:17:36.962Z,99.90
2018-10-18T04:20:07.731Z,99.90
2018-10-18T04:22:37.005Z,99.90
2018-10-18T04:25:07.157Z,99.90
2018-10-18T04:27:36.152Z,99.90
2018-10-18T04:30:06.058Z,99.90
2018-10-18T04:33:10.558Z,99.90
2018-10-18T04:35:52.334Z,99.90
2018-10-18T04:38:21.822Z,99.90
2018-10-18T04:40:51.180Z,99.90
2018-10-18T04:43:29.728Z,99.90
2018-10-18T04:45:59.364Z,99.90
2018-10-18T04:48:28.746Z,99.90
2018-10-18T04:50:57.817Z,99.90
2018-10-18T04:53:27.671Z,99.90
2018-10-18T04:55:57.568Z,99.90
2018-10-18T04:58:26.582Z,99.90
2018-10-18T05:00:55.673Z,99.90
2018-10-18T05:03:24.576Z,99.90
2018-10-18T05:05:56.163Z,99.90
2018-10-18T05:08:26.660Z,99.90
2018-10-18T05:10:57.628Z,99.90
2018-10-18T05:13:27.534Z,99.90
2018-10-18T05:15:56.512Z,99.90
2018-10-18T05:18:25.647Z,99.90
2018-10-18T05:20:55.760Z,99.90
2018-10-18T05:23:26.038Z,99.90
2018-10-18T05:25:55.240Z,99.90
2018-10-18T05:28:25.932Z,99.90
2018-10-18T05:30:55.336Z,99.90
2018-10-18T05:33:24.384Z,99.90
2018-10-18T05:35:53.624Z,99.90
2018-10-18T05:38:26.211Z,99.90
2018-10-18T05:41:01.156Z,99.90
2018-10-18T05:43:42.994Z,99.90
2018-10-18T05:46:13.947Z,99.90
2018-10-18T05:48:44.609Z,99.90
2018-10-18T05:51:14.513Z,99.90
2018-10-18T05:53:44.552Z,99.90
2018-10-18T05:56:15.598Z,99.90
2018-10-18T05:58:45.768Z,99.90
2018-10-18T06:01:19.604Z,99.90
2018-10-18T06:03:48.778Z,99.90
2018-10-18T06:06:19.172Z,99.90
2018-10-18T06:08:58.379Z,99.90
2018-10-18T06:11:29.298Z,99.90
2018-10-18T06:13:59.229Z,99.90
2018-10-18T06:16:28.854Z,99.90
2018-10-18T06:18:59.550Z,99.90
2018-10-18T06:21:31.558Z,99.90
2018-10-18T06:24:02.202Z,99.90
2018-10-18T06:26:38.868Z,99.90
2018-10-18T06:29:16.608Z,99.90
2018-10-18T06:31:58.977Z,99.90
2018-10-18T06:34:31.103Z,99.90
2018-10-18T06:37:00.261Z,99.90
2018-10-18T06:39:29.459Z,99.90
2018-10-18T06:42:00.191Z,99.90
2018-10-18T06:44:30.491Z,99.90
2018-10-18T06:47:00.097Z,99.90
2018-10-18T06:49:30.959Z,99.90
2018-10-18T06:52:01.676Z,99.90
2018-10-18T06:54:31.181Z,99.90
2018-10-18T06:57:03.771Z,99.90
2018-10-18T06:59:33.818Z,99.90
2018-10-18T07:02:03.070Z,99.90
2018-10-18T07:04:32.447Z,99.90
2018-10-18T07:07:01.631Z,99.90
2018-10-18T07:09:33.300Z,99.90
2018-10-18T07:12:03.085Z,99.90
2018-10-18T07:14:32.875Z,99.90
2018-10-18T07:17:01.867Z,99.90
2018-10-18T07:19:33.572Z,99.90
2018-10-18T07:22:03.302Z,99.90
2018-10-18T07:24:33.770Z,99.90
2018-10-18T07:27:03.193Z,99.90
2018-10-18T07:29:32.307Z,99.90
2018-10-18T07:32:03.653Z,99.90
2018-10-18T07:34:35.093Z,99.90
2018-10-18T07:37:07.187Z,99.90
2018-10-18T07:39:37.623Z,99.90
2018-10-18T07:45:11.619Z,99.90
2018-10-18T07:47:41.544Z,99.90
2018-10-18T07:50:11.434Z,99.90
2018-10-18T07:52:41.170Z,99.90
2018-10-18T07:55:11.281Z,99.90
2018-10-18T07:57:43.676Z,99.90
2018-10-18T08:00:17.714Z,99.90
2018-10-18T08:02:53.564Z,99.90
2018-10-18T08:05:24.299Z,99.90
2018-10-18T08:07:54.780Z,99.90
2018-10-18T08:10:25.485Z,99.90
2018-10-18T08:12:54.793Z,99.90
2018-10-18T08:15:24.501Z,99.90
2018-10-18T08:17:54.692Z,99.90
2018-10-18T08:20:24.720Z,99.90
2018-10-18T08:22:54.267Z,99.90
2018-10-18T08:25:23.754Z,99.90
2018-10-18T08:27:53.975Z,99.90
2018-10-18T08:30:24.645Z,99.90
2018-10-18T08:32:55.100Z,99.90
2018-10-18T08:35:24.367Z,99.90
2018-10-18T08:37:54.205Z,99.90
2018-10-18T08:40:23.676Z,99.90
2018-10-18T08:42:53.917Z,99.90
2018-10-18T08:45:23.124Z,99.90
2018-10-18T08:47:52.593Z,99.90
2018-10-18T08:50:22.164Z,99.90
2018-10-18T08:52:53.350Z,99.90
2018-10-18T08:55:22.665Z,99.90
2018-10-18T08:57:52.028Z,99.90
2018-10-18T09:00:22.335Z,99.90
2018-10-18T09:02:52.520Z,99.90
2018-10-18T09:05:23.407Z,99.90
2018-10-18T09:07:53.161Z,99.90
2018-10-18T09:10:22.765Z,99.90
2018-10-18T09:12:54.106Z,99.90
2018-10-18T09:15:24.002Z,99.90
2018-10-18T09:17:56.148Z,99.90
2018-10-18T09:20:25.665Z,99.90
2018-10-18T09:22:55.689Z,99.90
2018-10-18T09:25:25.163Z,99.90
2018-10-18T09:27:55.361Z,99.90
2018-10-18T09:30:29.563Z,99.90
2018-10-18T09:33:00.419Z,99.90
2018-10-18T09:35:41.668Z,99.90
2018-10-18T09:38:10.950Z,99.90
2018-10-18T09:40:41.312Z,99.90
2018-10-18T09:43:10.649Z,99.90
2018-10-18T09:45:41.279Z,99.90
2018-10-18T09:48:10.600Z,99.90
2018-10-18T09:50:41.192Z,99.90
2018-10-18T09:53:11.052Z,99.90
2018-10-18T09:55:40.440Z,99.90
2018-10-18T09:58:10.309Z,99.90
2018-10-18T10:00:44.400Z,99.90
2018-10-18T10:03:16.711Z,99.90
2018-10-18T10:05:48.300Z,99.90
2018-10-18T10:08:26.970Z,99.90
2018-10-18T10:10:59.312Z,99.90
2018-10-18T10:13:29.314Z,99.90
2018-10-18T10:15:59.326Z,99.90
2018-10-18T10:18:30.420Z,99.90
2018-10-18T10:20:59.822Z,99.90
2018-10-18T10:26:13.087Z,99.90
2018-10-18T10:28:44.388Z,99.90
2018-10-18T10:31:16.165Z,99.90
2018-10-18T10:33:45.932Z,99.90
2018-10-18T10:36:15.477Z,99.90
2018-10-18T10:38:46.191Z,99.90
2018-10-18T10:41:15.615Z,99.90
2018-10-18T10:43:46.132Z,99.90
2018-10-18T10:46:25.357Z,99.90
2018-10-18T10:48:56.943Z,99.90
2018-10-18T10:51:28.986Z,99.90
2018-10-18T10:54:02.349Z,99.90
2018-10-18T10:56:35.369Z,99.90
2018-10-18T10:59:14.596Z,99.90
2018-10-18T11:01:47.533Z,99.90
2018-10-18T11:04:17.721Z,99.90
2018-10-18T11:06:48.519Z,99.90
2018-10-18T11:09:18.756Z,99.90
2018-10-18T11:11:50.800Z,99.90
2018-10-18T11:14:22.476Z,99.90
2018-10-18T11:16:55.104Z,99.90
2018-10-18T11:19:28.374Z,99.90
2018-10-18T11:21:59.334Z,99.90
2018-10-18T11:24:29.915Z,99.90
2018-10-18T11:27:00.878Z,99.90
2018-10-18T11:29:33.850Z,99.90
2018-10-18T11:32:03.578Z,97.30
2018-10-18T11:34:39.355Z,93.40
2018-10-18T11:37:13.160Z,92.30
2018-10-18T11:42:30.128Z,92.30
2018-10-18T11:45:00.612Z,89.80
2018-10-18T11:47:30.793Z,88.40
2018-10-18T11:50:00.237Z,84.90
2018-10-18T11:52:29.338Z,86.50
2018-10-18T11:55:04.758Z,91.60
2018-10-18T11:57:36.299Z,93.80
2018-10-18T12:00:11.274Z,95.20
2018-10-18T12:02:40.709Z,97.20
2018-10-18T12:05:13.328Z,99.30
2018-10-18T12:07:44.456Z,99.90
2018-10-18T12:10:14.305Z,99.90
2018-10-18T12:12:45.302Z,99.90
2018-10-18T12:15:15.239Z,99.90
2018-10-18T12:17:46.201Z,99.90
2018-10-18T12:20:19.841Z,99.90
2018-10-18T12:22:52.814Z,99.90
2018-10-18T12:25:22.864Z,99.90
2018-10-18T12:28:20.408Z,99.90
2018-10-18T12:30:51.809Z,99.90
2018-10-18T12:33:26.199Z,99.90
2018-10-18T12:35:56.492Z,99.90
2018-10-18T12:38:56.248Z,99.90
2018-10-18T12:46:37.511Z,99.90
2018-10-18T12:49:07.276Z,99.60
2018-10-18T12:51:37.016Z,99.60
2018-10-18T12:54:07.642Z,99.00
2018-10-18T12:56:39.394Z,98.80
2018-10-18T12:59:30.981Z,98.70
2018-10-18T13:02:01.427Z,99.70
2018-10-18T13:04:33.077Z,99.30
2018-10-18T13:07:03.216Z,98.30
2018-10-18T13:09:33.499Z,97.60
2018-10-18T13:12:03.785Z,97.50
2018-10-18T13:14:34.087Z,96.80
2018-10-18T13:17:05.287Z,97.10
2018-10-18T13:19:37.063Z,97.30
2018-10-18T13:22:06.814Z,97.40
2018-10-18T13:24:36.256Z,96.90
2018-10-18T13:27:05.919Z,96.50
2018-10-18T13:29:36.177Z,96.50
2018-10-18T13:32:07.936Z,95.50
2018-10-18T13:35:02.580Z,95.90
2018-10-18T13:37:39.326Z,96.00
2018-10-18T13:40:19.654Z,95.90
2018-10-18T13:42:50.450Z,95.80
2018-10-18T13:45:20.886Z,94.80
2018-10-18T13:48:04.744Z,93.30
2018-10-18T13:50:36.042Z,93.30
2018-10-18T13:53:06.308Z,93.50
2018-10-18T13:55:37.168Z,93.20
2018-10-18T13:58:07.768Z,93.10
2018-10-18T14:00:37.463Z,92.80
2018-10-18T14:03:10.188Z,93.10
2018-10-18T14:05:40.424Z,93.20
2018-10-18T14:08:24.164Z,93.10
2018-10-18T14:10:56.323Z,92.00
2018-10-18T14:24:12.909Z,80.70
2018-10-18T14:26:43.593Z,85.80
2018-10-18T14:29:13.610Z,87.50
2018-10-18T14:31:43.344Z,89.90
2018-10-18T14:34:13.450Z,90.90
2018-10-18T14:36:42.779Z,91.50
2018-10-18T14:39:13.784Z,91.60
2018-10-18T14:41:46.256Z,92.30
2018-10-18T14:44:18.909Z,92.60
2018-10-18T14:46:49.197Z,92.50
2018-10-18T14:49:19.591Z,93.10
2018-10-18T14:51:59.364Z,93.10
2018-10-18T14:54:30.642Z,93.50
2018-10-18T14:56:59.903Z,93.00
2018-10-18T14:59:31.331Z,92.90
2018-10-18T15:02:01.647Z,92.80
2018-10-18T15:04:31.920Z,92.70
2018-10-18T15:07:09.408Z,92.80
2018-10-18T15:09:39.259Z,92.50
2018-10-18T15:12:10.369Z,92.70
2018-10-18T15:14:42.390Z,93.10
2018-10-18T15:17:18.362Z,92.70
2018-10-18T15:19:55.460Z,92.40
2018-10-18T15:22:27.415Z,92.10
2018-10-18T15:24:57.645Z,91.90
2018-10-18T15:27:32.789Z,91.70
2018-10-18T15:30:03.346Z,91.10
2018-10-18T15:32:35.228Z,90.30
2018-10-18T15:35:07.118Z,89.70
2018-10-18T15:37:57.221Z,90.30
2018-10-18T15:40:27.464Z,90.50
2018-10-18T15:42:59.647Z,90.60
2018-10-18T15:45:30.720Z,90.80
2018-10-18T15:48:00.343Z,90.90
2018-10-18T15:50:33.230Z,91.30
2018-10-18T15:53:05.065Z,91.90
2018-10-18T15:55:35.839Z,92.30
2018-10-18T15:58:09.549Z,92.60
2018-10-18T16:00:38.885Z,93.10
2018-10-18T16:03:25.819Z,93.60
2018-10-18T16:06:11.282Z,93.90
2018-10-18T16:08:44.139Z,94.20
2018-10-18T16:11:25.183Z,94.60
2018-10-18T16:14:08.053Z,95.50
2018-10-18T16:19:38.470Z,95.60
2018-10-18T16:22:10.800Z,95.90
2018-10-18T16:24:42.258Z,96.10
2018-10-18T16:27:20.643Z,96.20
2018-10-18T16:29:52.129Z,97.90
2018-10-18T16:32:34.218Z,99.20
2018-10-18T16:35:09.426Z,99.90
2018-10-18T16:37:43.249Z,99.90
2018-10-18T16:44:57.725Z,99.90
2018-10-18T16:47:29.677Z,99.90
2018-10-18T16:50:00.687Z,99.90
2018-10-18T16:52:30.985Z,99.90
2018-10-18T16:55:08.827Z,99.90
2018-10-18T16:58:02.621Z,99.90
2018-10-18T17:00:39.809Z,99.90
2018-10-18T17:03:13.249Z,99.90
2018-10-18T17:05:46.754Z,99.90
2018-10-18T17:08:24.261Z,99.90
2018-10-18T17:10:56.989Z,99.90
2018-10-18T17:13:37.079Z,99.90
2018-10-18T17:16:12.194Z,99.90
2018-10-18T17:18:47.667Z,99.90
2018-10-18T17:21:23.731Z,99.90
2018-10-18T17:23:57.741Z,99.90
2018-10-18T17:26:33.181Z,99.90
2018-10-18T17:29:07.947Z,99.90
2018-10-18T17:31:55.448Z,99.90
2018-10-18T17:34:32.089Z,99.90
2018-10-18T17:37:29.228Z,99.90
2018-10-18T17:40:18.709Z,99.90
2018-10-18T17:43:19.608Z,99.90
2018-10-18T17:45:52.237Z,99.90
2018-10-18T17:48:28.698Z,99.90
2018-10-18T17:51:09.647Z,99.90
2018-10-18T17:53:41.548Z,99.90
2018-10-18T17:56:14.560Z,99.90
2018-10-18T17:58:53.960Z,99.90
2018-10-18T18:01:35.095Z,99.90
2018-10-18T18:04:07.020Z,99.90
2018-10-18T18:06:43.334Z,99.90
2018-10-18T18:09:16.437Z,99.90
2018-10-18T18:11:47.613Z,99.90
2018-10-18T18:14:18.977Z,99.90
2018-10-18T18:16:51.526Z,99.90
2018-10-18T18:19:36.580Z,99.90
2018-10-18T18:22:11.446Z,99.90
2018-10-18T18:24:45.168Z,99.90
2018-10-18T18:27:17.963Z,99.90
2018-10-18T18:29:52.321Z,99.90
2018-10-18T18:32:24.861Z,99.90
2018-10-18T18:34:59.468Z,99.90
2018-10-18T18:37:34.036Z,99.90
2018-10-18T18:40:05.366Z,99.90
2018-10-18T18:42:42.533Z,99.90
2018-10-18T18:45:44.250Z,99.90
2018-10-18T18:48:23.762Z,99.90
2018-10-18T18:51:10.200Z,99.90
2018-10-18T18:53:46.405Z,99.90
2018-10-18T18:56:34.321Z,99.90
2018-10-18T19:01:50.716Z,99.90
2018-10-18T19:04:24.433Z,99.90
2018-10-18T19:06:58.348Z,99.90
2018-10-18T19:09:40.183Z,99.90
2018-10-18T19:12:29.931Z,99.90
2018-10-18T19:15:17.519Z,99.90
2018-10-18T19:18:08.706Z,99.90
2018-10-18T19:20:43.358Z,99.90
2018-10-18T19:23:21.484Z,99.90
2018-10-18T19:25:56.429Z,99.90
2018-10-18T19:28:28.742Z,99.90
2018-10-18T19:31:02.658Z,99.90
2018-10-18T19:33:35.542Z,99.90
2018-10-18T19:36:07.853Z,99.90
2018-10-18T19:38:52.266Z,99.90
2018-10-18T19:41:34.837Z,99.90
2018-10-18T19:44:05.081Z,99.90
2018-10-18T19:46:37.097Z,99.90
2018-10-18T19:49:06.543Z,99.90
2018-10-18T19:52:01.649Z,99.90
2018-10-18T19:57:27.525Z,99.90
2018-10-18T20:11:33.343Z,99.90
2018-10-18T20:21:36.879Z,99.90
2018-10-18T20:24:34.064Z,99.90
2018-10-18T20:27:06.053Z,99.90
2018-10-18T20:33:38.602Z,99.90
2018-10-18T20:36:11.808Z,99.90
2018-10-18T20:38:48.218Z,99.90
2018-10-18T20:41:23.066Z,99.90
2018-10-18T20:43:55.451Z,99.90
2018-10-18T20:46:29.328Z,99.90
2018-10-18T20:49:07.067Z,99.90
2018-10-18T20:51:52.167Z,99.90
2018-10-18T20:54:31.936Z,99.90
2018-10-18T20:57:07.387Z,99.90
2018-10-18T21:00:13.207Z,99.90
2018-10-18T21:03:03.080Z,99.90
2018-10-18T21:05:48.091Z,99.90
2018-10-18T21:08:23.753Z,99.90
2018-10-18T21:10:54.786Z,99.90
2018-10-18T21:13:32.293Z,99.90
2018-10-18T21:16:17.021Z,99.90
2018-10-18T21:18:57.028Z,99.90
2018-10-18T21:21:38.532Z,99.90
2018-10-18T21:24:10.277Z,99.90
2018-10-18T21:26:51.411Z,99.90
2018-10-18T21:29:34.630Z,99.90
2018-10-18T21:32:29.717Z,99.90
2018-10-18T21:35:14.922Z,99.90
2018-10-18T21:37:50.364Z,99.90
2018-10-18T21:40:27.314Z,99.90
2018-10-18T21:43:05.113Z,99.90
2018-10-18T21:45:42.758Z,99.90
2018-10-18T21:48:22.973Z,99.90
2018-10-18T21:50:57.026Z,99.90
2018-10-18T21:53:29.546Z,99.90
2018-10-18T21:56:06.842Z,99.90
2018-10-18T21:58:46.722Z,99.90
2018-10-18T22:07:52.055Z,99.90
2018-10-18T22:10:24.084Z,99.90
2018-10-18T22:13:15.980Z,99.90
2018-10-18T22:15:45.824Z,99.90
2018-10-18T22:18:17.233Z,99.90
2018-10-18T22:20:49.326Z,99.90
2018-10-18T22:23:19.921Z,99.90
2018-10-18T22:26:20.757Z,99.90
2018-10-18T22:29:15.936Z,99.90
2018-10-18T22:31:45.827Z,99.90
2018-10-18T22:34:19.957Z,99.90
2018-10-18T22:36:50.048Z,99.90
2018-10-18T22:39:20.505Z,99.90
2018-10-18T22:41:51.096Z,99.90
2018-10-18T22:44:21.462Z,99.90
2018-10-18T22:46:52.372Z,99.90
2018-10-18T22:49:28.186Z,99.90
2018-10-18T22:51:59.969Z,99.90
2018-10-18T22:54:31.016Z,99.90
2018-10-18T22:57:00.773Z,99.90
2018-10-18T22:59:30.393Z,99.90
2018-10-18T23:02:00.488Z,99.90
2018-10-18T23:04:31.237Z,99.90
2018-10-18T23:07:00.913Z,99.90
2018-10-18T23:09:30.822Z,99.90
2018-10-18T23:12:00.418Z,99.90
2018-10-18T23:14:30.481Z,99.90
2018-10-18T23:17:00.046Z,99.90
2018-10-18T23:19:30.145Z,99.90
2018-10-18T23:21:59.941Z,99.90
2018-10-18T23:24:38.579Z,99.90
2018-10-18T23:27:09.205Z,99.90
2018-10-18T23:29:40.322Z,99.90
2018-10-18T23:32:11.279Z,99.90
2018-10-18T23:34:40.990Z,99.90
2018-10-18T23:37:10.438Z,99.90
2018-10-18T23:39:41.434Z,99.90
2018-10-18T23:42:11.183Z,99.90
2018-10-18T23:44:41.113Z,99.90
2018-10-18T23:47:11.049Z,99.90
2018-10-18T23:49:46.761Z,99.90
2018-10-18T23:52:16.131Z,99.90
2018-10-18T23:54:45.703Z,99.90
2018-10-18T23:57:15.117Z,99.90
2018-10-18T23:59:46.282Z,99.90
